Conklin, Michigan
Current Conditions -  °F | °C
As of 3:55 PM on Friday 24 Oct 2014 (Local Time) from KMKG Reporting Station
Overcast Overcast  
Wind Chill: 55°   Ceiling: 1000
Heat Index: 55°   Visibility: 10mi
Dew Point: 49°   Wind: 10mph
Humidity: 80%   Direction: 220°SW
Pressure: 29.98"   Gusts: NA
Location:  43.13°N, 85.88°W
Report Text: KMKG 241955Z 22009KT 10SM BKN010 OVC014 13/09 A2998 RMK AO2 SLP155 T01280094
Loading
Personal Weather Stations






























Interactive Weather Map
Tropical Storm Tracking
New forecast layout! Learn more

10-Day Weather Forecast

Advertisements
Track Severe Weather on mobile